Helga — D5BK2 — position and weather

sailwx.info

Track history (hours):
 
Tides and Currents Weather Stations Pressure Air Temp Water Temp Dewpoint Dewpoint Depression Visibility Wind Speed Wind Dir Waves Ship Positions

Helga

Last reported at 2018-Feb-24 00:57 UTC. Time now 2018-Feb-24 18:06 UTC.
Position N 37°30' E 025°56'.

Length 169 m; draft 9.8 m.

Type: Cargo ship. MMSI: 636092390.

Date/timePositionNaut miles runAvg speedWind from/ knotsBaromVisibWave heightAir tempDewpointWater temp
2018-Feb-24 00:57N 37°30' E 025°56'511.8
2018-Feb-24 00:30N 37°35' E 025°54'  
2018-Feb-20 23:59N 46°21' E 030°55'511.4
2018-Feb-20 23:30N 46°27' E 030°55'610.4
2018-Feb-20 22:56N 46°33' E 030°57'1810.4
2018-Feb-20 21:13N 46°34' E 031°23'5 9.6
2018-Feb-20 20:43N 46°36' E 031°30'2 9.4
2018-Feb-20 20:31N 46°35' E 031°32'5 9.8
2018-Feb-20 20:00N 46°36' E 031°39'5 9.7
2018-Feb-20 19:30N 46°36' E 031°46'4 8.0
2018-Feb-20 19:00N 46°37' E 031°52'4 7.7
2018-Feb-20 18:30N 46°40' E 031°56'4 8.1
2018-Feb-20 18:00N 46°44' E 031°56'4 7.8
2018-Feb-20 17:30N 46°47' E 031°53'5 9.7
2018-Feb-20 17:00N 46°51' E 031°57'5 9.7
2018-Feb-20 16:30N 46°55' E 032°01'1 2.0
2018-Feb-20 15:59N 46°56' E 032°01'0 0.0
2018-Feb-20 15:29N 46°56' E 032°01'0 0.0
2018-Feb-20 14:59N 46°56' E 032°01'0 0.0
2018-Feb-20 14:29N 46°56' E 032°01'0 0.0
2018-Feb-20 13:59N 46°56' E 032°01'0 0.0
2018-Feb-20 13:29N 46°56' E 032°01'0 0.0
2018-Feb-20 12:59N 46°56' E 032°01'0 0.0
2018-Feb-20 12:29N 46°56' E 032°01'0 0.0
2018-Feb-20 11:50N 46°56' E 032°01'0 0.0
2018-Feb-20 11:29N 46°56' E 032°01'0 0.0
2018-Feb-20 10:59N 46°56' E 032°01'0 0.0
2018-Feb-20 10:29N 46°56' E 032°01'0 0.0
2018-Feb-20 09:59N 46°56' E 032°01'0 0.0
2018-Feb-20 09:29N 46°56' E 032°01'0 0.0
2018-Feb-20 08:59N 46°56' E 032°01'0 0.0
2018-Feb-20 08:29N 46°56' E 032°01'0 0.0
2018-Feb-20 07:59N 46°56' E 032°01'0 0.0
2018-Feb-20 07:29N 46°56' E 032°01'0 0.0
2018-Feb-20 06:59N 46°56' E 032°01'0 0.0
2018-Feb-20 06:29N 46°56' E 032°01'0 0.0
2018-Feb-20 05:59N 46°56' E 032°01'0 0.0
2018-Feb-20 05:29N 46°56' E 032°01'0 0.0
2018-Feb-20 04:59N 46°56' E 032°01'0 0.0
2018-Feb-20 04:29N 46°56' E 032°01'0 0.0
2018-Feb-20 03:59N 46°56' E 032°01'0 0.0
2018-Feb-20 03:29N 46°56' E 032°01'0 0.0
2018-Feb-20 02:59N 46°56' E 032°01'0 0.0
2018-Feb-20 02:29N 46°56' E 032°01'0 0.0
2018-Feb-20 01:59N 46°56' E 032°01'0 0.0
2018-Feb-20 01:29N 46°56' E 032°01'0 0.0
2018-Feb-20 00:59N 46°56' E 032°01'0 0.0
2018-Feb-20 00:29N 46°56' E 032°01'0 0.0
2018-Feb-19 23:59N 46°56' E 032°01'0 0.0
2018-Feb-19 23:29N 46°56' E 032°01'0 0.0
2018-Feb-19 22:59N 46°56' E 032°01'0 0.0
2018-Feb-19 22:29N 46°56' E 032°01'0 0.0
2018-Feb-19 21:59N 46°56' E 032°01'0 0.0
2018-Feb-19 21:23N 46°56' E 032°01'0 0.0
2018-Feb-19 20:59N 46°56' E 032°01'0 0.0
2018-Feb-19 20:26N 46°56' E 032°01'0 0.0
2018-Feb-19 19:59N 46°56' E 032°01'0 0.0
2018-Feb-19 19:29N 46°56' E 032°01'0 0.0
2018-Feb-19 18:56N 46°56' E 032°01'0 0.0
2018-Feb-19 18:29N 46°56' E 032°01'0 0.0
2018-Feb-19 17:59N 46°56' E 032°01'0 0.0
2018-Feb-19 17:29N 46°56' E 032°01'0 0.0
2018-Feb-19 16:59N 46°56' E 032°01'0 0.0
2018-Feb-19 16:29N 46°56' E 032°01'0 0.0
2018-Feb-19 15:59N 46°56' E 032°01'0 0.0
2018-Feb-19 15:29N 46°56' E 032°01'0 0.0
2018-Feb-19 14:59N 46°56' E 032°01'0 0.0
2018-Feb-19 14:29N 46°56' E 032°01'0 0.0
2018-Feb-19 13:59N 46°56' E 032°01'0 0.0
2018-Feb-19 13:29N 46°56' E 032°01'0 0.0
2018-Feb-19 12:59N 46°56' E 032°01'0 0.0
2018-Feb-19 12:29N 46°56' E 032°01'0 0.0
2018-Feb-19 11:59N 46°56' E 032°01'0 0.0
2018-Feb-19 11:29N 46°56' E 032°01'0 0.0
2018-Feb-19 10:59N 46°56' E 032°01'0 0.0
2018-Feb-19 10:29N 46°56' E 032°01'0 0.0
2018-Feb-19 09:59N 46°56' E 032°01'0 0.0
2018-Feb-19 09:29N 46°56' E 032°01'0 0.0
2018-Feb-19 08:59N 46°56' E 032°01'0 0.0
2018-Feb-19 08:23N 46°56' E 032°01'0 0.0
2018-Feb-19 07:59N 46°56' E 032°01'0 0.0
2018-Feb-19 07:29N 46°56' E 032°01'0 0.0
2018-Feb-19 06:59N 46°56' E 032°01'0 0.0
2018-Feb-19 06:29N 46°56' E 032°01'0 0.0
2018-Feb-19 05:59N 46°56' E 032°01'0 0.0
2018-Feb-19 05:29N 46°56' E 032°01'0 0.0
2018-Feb-19 04:59N 46°56' E 032°01'0 0.0
2018-Feb-19 04:29N 46°56' E 032°01'0 0.0
2018-Feb-19 03:59N 46°56' E 032°01'0 0.0
2018-Feb-19 03:29N 46°56' E 032°01'0 0.0
2018-Feb-19 02:59N 46°56' E 032°01'0 0.0
2018-Feb-19 02:29N 46°56' E 032°01'0 0.0
2018-Feb-19 01:59N 46°56' E 032°01'0 0.0
2018-Feb-19 01:29N 46°56' E 032°01'0 0.0
2018-Feb-19 00:59N 46°56' E 032°01'0 0.0
2018-Feb-19 00:29N 46°56' E 032°01'0 0.0
2018-Feb-18 23:56N 46°56' E 032°01'0 0.0
2018-Feb-18 23:26N 46°56' E 032°01'0 0.0
2018-Feb-18 22:59N 46°56' E 032°01'0 0.0
2018-Feb-18 22:29N 46°56' E 032°01'0 0.0
2018-Feb-18 21:59N 46°56' E 032°01'0 0.0
2018-Feb-18 21:26N 46°56' E 032°01'0 0.0
2018-Feb-18 20:59N 46°56' E 032°01'0 0.0
2018-Feb-18 20:29N 46°56' E 032°01'0 0.0
2018-Feb-18 19:59N 46°56' E 032°01'0 0.0
2018-Feb-18 19:29N 46°56' E 032°01'0 0.0
2018-Feb-18 18:59N 46°56' E 032°01'0 0.0
2018-Feb-18 18:29N 46°56' E 032°01'0 0.0
2018-Feb-18 17:56N 46°56' E 032°01'0 0.0
2018-Feb-18 17:29N 46°56' E 032°01'0 0.0
2018-Feb-18 16:59N 46°56' E 032°01'0 0.0
2018-Feb-18 16:26N 46°56' E 032°01'0 0.0
2018-Feb-18 15:59N 46°56' E 032°01'0 0.0
2018-Feb-18 15:29N 46°56' E 032°01'0 0.0
2018-Feb-18 14:59N 46°56' E 032°01'0 0.0
2018-Feb-18 14:29N 46°56' E 032°01'0 0.0
2018-Feb-18 13:59N 46°56' E 032°01'0 0.0
2018-Feb-18 13:26N 46°56' E 032°01'0 0.0
2018-Feb-18 12:59N 46°56' E 032°01'0 0.0
2018-Feb-18 12:29N 46°56' E 032°01'0 0.0
2018-Feb-18 11:59N 46°56' E 032°01'0 0.0
2018-Feb-18 11:29N 46°56' E 032°01'0 0.0
2018-Feb-18 10:59N 46°56' E 032°01'0 0.0
2018-Feb-18 10:29N 46°56' E 032°01'0 0.0
2018-Feb-18 09:59N 46°56' E 032°01'0 0.0
2018-Feb-18 09:29N 46°56' E 032°01'0 0.0
2018-Feb-18 08:59N 46°56' E 032°01'0 0.0
2018-Feb-18 08:29N 46°56' E 032°01'0 0.0
2018-Feb-18 07:59N 46°56' E 032°01'0 0.0
2018-Feb-18 07:29N 46°56' E 032°01'0 0.0
2018-Feb-18 06:59N 46°56' E 032°01'0 0.0
2018-Feb-18 06:29N 46°56' E 032°01'0 0.0
2018-Feb-18 05:59N 46°56' E 032°01'0 0.0
2018-Feb-18 05:26N 46°56' E 032°01'0 0.0
2018-Feb-18 04:59N 46°56' E 032°01'0 0.0
2018-Feb-18 04:29N 46°56' E 032°01'0 0.0
2018-Feb-18 03:59N 46°56' E 032°01'0 0.0
2018-Feb-18 03:29N 46°56' E 032°01'0 0.0
2018-Feb-18 02:59N 46°56' E 032°01'0 0.0
2018-Feb-18 02:26N 46°56' E 032°01'0 0.0
2018-Feb-18 01:59N 46°56' E 032°01'0 0.0
2018-Feb-18 01:29N 46°56' E 032°01'0 0.0
2018-Feb-18 00:59N 46°56' E 032°01'0 0.0
2018-Feb-18 00:29N 46°56' E 032°01'0 0.0
2018-Feb-17 23:59N 46°56' E 032°01'0 0.0
2018-Feb-17 23:29N 46°56' E 032°01'0 0.0
2018-Feb-17 22:59N 46°56' E 032°01'0 0.0
2018-Feb-17 22:29N 46°56' E 032°01'0 0.0
2018-Feb-17 21:56N 46°56' E 032°01'0 0.0
2018-Feb-17 21:29N 46°56' E 032°01'0 0.0
2018-Feb-17 20:56N 46°56' E 032°01'0 0.0
2018-Feb-17 20:29N 46°56' E 032°01'0 0.0
2018-Feb-17 19:59N 46°56' E 032°01'0 0.0
2018-Feb-17 19:29N 46°56' E 032°01'0 0.0
2018-Feb-17 18:59N 46°56' E 032°01'0 0.0
2018-Feb-17 18:29N 46°56' E 032°01'0 0.0
2018-Feb-17 17:59N 46°56' E 032°01'0 0.0
2018-Feb-17 17:29N 46°56' E 032°01'0 0.0
2018-Feb-17 16:59N 46°56' E 032°01'0 0.0
2018-Feb-17 16:29N 46°56' E 032°01'0 0.0
2018-Feb-17 15:59N 46°56' E 032°01'0 0.0
2018-Feb-17 15:29N 46°56' E 032°01'0 0.0
2018-Feb-17 14:59N 46°56' E 032°01'0 0.0
2018-Feb-17 14:29N 46°56' E 032°01'0 0.0
2018-Feb-17 13:56N 46°56' E 032°01'0 0.0
2018-Feb-17 13:29N 46°56' E 032°01'0 0.0
2018-Feb-17 12:59N 46°56' E 032°01'0 0.0
2018-Feb-17 12:29N 46°56' E 032°01'0 0.0
2018-Feb-17 11:59N 46°56' E 032°01'0 0.0
2018-Feb-17 11:29N 46°56' E 032°01'0 0.0
2018-Feb-17 10:59N 46°56' E 032°01'0 0.0
2018-Feb-17 10:29N 46°56' E 032°01'0 0.0
2018-Feb-17 09:59N 46°56' E 032°01'0 0.0
2018-Feb-17 09:29N 46°56' E 032°01'0 0.0
2018-Feb-17 08:59N 46°56' E 032°01'0 0.0
2018-Feb-17 08:29N 46°56' E 032°01'0 0.0
2018-Feb-17 07:59N 46°56' E 032°01'0 0.0
2018-Feb-17 07:29N 46°56' E 032°01'0 0.0
2018-Feb-17 06:59N 46°56' E 032°01'0 0.0
2018-Feb-17 06:29N 46°56' E 032°01'0 0.0
2018-Feb-17 05:59N 46°56' E 032°01'0 0.0
2018-Feb-17 05:29N 46°56' E 032°01'0 0.0
2018-Feb-17 04:59N 46°56' E 032°01'0 0.0
2018-Feb-17 04:29N 46°56' E 032°01'0 0.0
2018-Feb-17 03:59N 46°56' E 032°01'0 0.0
2018-Feb-17 03:29N 46°56' E 032°01'0 0.0
2018-Feb-17 02:59N 46°56' E 032°01'0 0.0
2018-Feb-17 02:29N 46°56' E 032°01'0 0.0
2018-Feb-17 01:59N 46°56' E 032°01'0 0.0
2018-Feb-17 01:29N 46°56' E 032°01'0 0.0
2018-Feb-17 00:59N 46°56' E 032°01'0 0.0
2018-Feb-17 00:29N 46°56' E 032°01'0 0.0
2018-Feb-16 23:59N 46°56' E 032°01'0 0.0
2018-Feb-16 23:29N 46°56' E 032°01'0 0.0
2018-Feb-16 22:59N 46°56' E 032°01'0 0.0
2018-Feb-16 22:29N 46°56' E 032°01'0 0.0
2018-Feb-16 21:59N 46°56' E 032°01'0 0.0
2018-Feb-16 21:29N 46°56' E 032°01'0 0.0
2018-Feb-16 20:59N 46°56' E 032°01'0 0.0
2018-Feb-16 20:29N 46°56' E 032°01'0 0.0
2018-Feb-16 19:59N 46°56' E 032°01'0 0.0
2018-Feb-16 19:29N 46°56' E 032°01'0 0.0
2018-Feb-16 18:59N 46°56' E 032°01'0 0.0
2018-Feb-16 18:29N 46°56' E 032°01'0 0.0
2018-Feb-16 17:59N 46°56' E 032°01'0 0.0
2018-Feb-16 17:29N 46°56' E 032°01'0 0.1
2018-Feb-16 16:59N 46°56' E 032°01'0 0.0
2018-Feb-16 16:23N 46°56' E 032°01'0 0.1
2018-Feb-16 15:59N 46°56' E 032°01'0 0.0
2018-Feb-16 15:29N 46°56' E 032°01'0 0.0
2018-Feb-16 14:59N 46°56' E 032°01'0 0.0
2018-Feb-16 14:29N 46°56' E 032°01'0 0.0
2018-Feb-16 13:59N 46°56' E 032°01'0 0.0
2018-Feb-16 13:29N 46°56' E 032°01'0 0.0
2018-Feb-16 12:59N 46°56' E 032°01'0 0.0
2018-Feb-16 12:29N 46°56' E 032°01'0 0.0
2018-Feb-16 11:59N 46°56' E 032°01'0 0.0
2018-Feb-16 11:29N 46°56' E 032°01'0 0.0
2018-Feb-16 10:59N 46°56' E 032°01'0 0.0
2018-Feb-16 10:29N 46°56' E 032°01'0 0.0
2018-Feb-16 09:59N 46°56' E 032°01'0 0.0
2018-Feb-16 09:29N 46°56' E 032°01'0 0.0
2018-Feb-16 08:59N 46°56' E 032°01'0 0.0
2018-Feb-16 08:29N 46°56' E 032°01'0 0.0
2018-Feb-16 07:59N 46°56' E 032°01'0 0.0
2018-Feb-16 07:29N 46°56' E 032°01'0 0.0
2018-Feb-16 06:59N 46°56' E 032°01'0 0.0
2018-Feb-16 06:29N 46°56' E 032°01'0 0.0
2018-Feb-16 05:59N 46°56' E 032°01'0 0.0
2018-Feb-16 05:29N 46°56' E 032°01'0 0.0
2018-Feb-16 04:53N 46°56' E 032°01'0 0.0
2018-Feb-16 04:29N 46°56' E 032°01'0 0.0
2018-Feb-16 03:59N 46°56' E 032°01'0 0.0
2018-Feb-16 03:29N 46°56' E 032°01'0 0.0
2018-Feb-16 02:59N 46°56' E 032°01'0 0.0
2018-Feb-16 02:29N 46°56' E 032°01'0 0.0
2018-Feb-16 01:59N 46°56' E 032°01'0 0.0
2018-Feb-16 01:29N 46°56' E 032°01'0 0.0
2018-Feb-16 00:59N 46°56' E 032°01'0 0.0
2018-Feb-16 00:29N 46°56' E 032°01'0 0.0
2018-Feb-15 23:59N 46°56' E 032°01'0 0.0
2018-Feb-15 23:29N 46°56' E 032°01'0 0.0
2018-Feb-15 22:59N 46°56' E 032°01'0 0.0
2018-Feb-15 22:29N 46°56' E 032°01'0 0.0
2018-Feb-15 21:59N 46°56' E 032°01'0 0.0
2018-Feb-15 21:29N 46°56' E 032°01'0 0.0
2018-Feb-15 20:59N 46°56' E 032°01'0 0.0
2018-Feb-15 20:29N 46°56' E 032°01'0 0.0
2018-Feb-15 19:59N 46°56' E 032°01'0 0.0
2018-Feb-15 19:29N 46°56' E 032°01'0 0.0
2018-Feb-15 18:59N 46°56' E 032°01'0 0.0
2018-Feb-15 18:29N 46°56' E 032°01'0 0.0
2018-Feb-15 17:59N 46°56' E 032°01'0 0.0
2018-Feb-15 17:29N 46°56' E 032°01'0 0.0
2018-Feb-15 16:59N 46°56' E 032°01'0 0.0
2018-Feb-15 16:29N 46°56' E 032°01'0 0.0
2018-Feb-15 15:59N 46°56' E 032°01'0 0.0
2018-Feb-15 15:29N 46°56' E 032°01'0 0.0
2018-Feb-15 14:59N 46°56' E 032°01'0 0.0
2018-Feb-15 14:29N 46°56' E 032°01'0 0.0
2018-Feb-15 13:59N 46°56' E 032°01'0 0.0
2018-Feb-15 13:29N 46°56' E 032°01'0 0.0
2018-Feb-15 12:59N 46°56' E 032°01'0 0.0
2018-Feb-15 12:29N 46°56' E 032°01'0 0.0
2018-Feb-15 11:59N 46°56' E 032°01'0 0.0
2018-Feb-15 11:29N 46°56' E 032°01'0 0.0
2018-Feb-15 10:59N 46°56' E 032°01'0 0.0
2018-Feb-15 10:29N 46°56' E 032°01'0 0.0
2018-Feb-15 09:59N 46°56' E 032°01'0 0.0
2018-Feb-15 09:29N 46°56' E 032°01'0 0.0
2018-Feb-15 08:59N 46°56' E 032°01'0 0.0
2018-Feb-15 08:29N 46°56' E 032°01'0 0.0
2018-Feb-15 07:59N 46°56' E 032°01'0 0.0
2018-Feb-15 07:29N 46°56' E 032°01'0 0.0
2018-Feb-15 06:59N 46°56' E 032°01'0 0.0
2018-Feb-15 06:23N 46°56' E 032°01'0 0.0
2018-Feb-15 05:59N 46°56' E 032°01'0 0.0
2018-Feb-15 05:29N 46°56' E 032°01'0 0.0
2018-Feb-15 04:59N 46°56' E 032°01'0 0.0
2018-Feb-15 04:29N 46°56' E 032°01'0 0.0
2018-Feb-15 03:59N 46°56' E 032°01'0 0.0
2018-Feb-15 03:29N 46°56' E 032°01'0 0.0
2018-Feb-15 02:59N 46°56' E 032°01'0 0.0
2018-Feb-15 02:29N 46°56' E 032°01'0 0.0
2018-Feb-15 01:59N 46°56' E 032°01'0 0.0
2018-Feb-15 01:29N 46°56' E 032°01'0 0.0
2018-Feb-15 00:59N 46°56' E 032°01'0 0.0
2018-Feb-15 00:29N 46°56' E 032°01'0 0.0
2018-Feb-14 23:59N 46°56' E 032°01'0 0.0
2018-Feb-14 23:29N 46°56' E 032°01'0 0.0
2018-Feb-14 22:59N 46°56' E 032°01'0 0.0
2018-Feb-14 22:29N 46°56' E 032°01'0 0.0
2018-Feb-14 21:59N 46°56' E 032°01'0 0.0
2018-Feb-14 21:29N 46°56' E 032°01'0 0.0
2018-Feb-14 20:59N 46°56' E 032°01'0 0.0
2018-Feb-14 20:29N 46°56' E 032°01'0 0.0
2018-Feb-14 19:59N 46°56' E 032°01'0 0.0
2018-Feb-14 19:29N 46°56' E 032°01'0 0.0
2018-Feb-14 18:59N 46°56' E 032°01'0 0.0
2018-Feb-14 18:29N 46°56' E 032°01'0 0.0
2018-Feb-14 17:59N 46°56' E 032°01'0 0.0
2018-Feb-14 17:29N 46°56' E 032°01'0 0.0
2018-Feb-14 16:59N 46°56' E 032°01'0 0.0
2018-Feb-14 16:29N 46°56' E 032°01'0 0.0
2018-Feb-14 15:59N 46°56' E 032°01'0 0.0
2018-Feb-14 15:29N 46°56' E 032°01'0 0.0
2018-Feb-14 14:59N 46°56' E 032°01'0 0.0
2018-Feb-14 14:29N 46°56' E 032°01'0 0.0
2018-Feb-14 13:59N 46°56' E 032°01'0 0.0
2018-Feb-14 13:29N 46°56' E 032°01'0 0.0
2018-Feb-14 12:59N 46°56' E 032°01'0 0.0
2018-Feb-14 12:29N 46°56' E 032°01'0 0.0
2018-Feb-14 11:59N 46°56' E 032°01'0 0.0
2018-Feb-14 11:29N 46°56' E 032°01'0 0.0
2018-Feb-14 10:59N 46°56' E 032°01'0 0.0
2018-Feb-14 10:29N 46°56' E 032°01'0 0.0
2018-Feb-14 09:59N 46°56' E 032°01'0 0.0
2018-Feb-14 09:29N 46°56' E 032°01'0 0.0
2018-Feb-14 08:59N 46°56' E 032°01'0 0.0
2018-Feb-14 08:29N 46°56' E 032°01'0 0.0
2018-Feb-14 07:59N 46°56' E 032°01'0 0.0
2018-Feb-14 07:29N 46°56' E 032°01'0 0.0
2018-Feb-14 06:59N 46°56' E 032°01'0 0.0
2018-Feb-14 06:29N 46°56' E 032°01'0 0.0
2018-Feb-14 05:59N 46°56' E 032°01'0 0.0
2018-Feb-14 05:29N 46°56' E 032°01'0 0.0
2018-Feb-14 04:59N 46°56' E 032°01'0 0.0
2018-Feb-14 04:29N 46°56' E 032°01'0 0.0
2018-Feb-14 03:59N 46°56' E 032°01'0 0.0
2018-Feb-14 03:29N 46°56' E 032°01'0 0.0
2018-Feb-14 02:59N 46°56' E 032°01'0 0.0
2018-Feb-14 02:29N 46°56' E 032°01'0 0.0
2018-Feb-14 01:59N 46°56' E 032°01'0 0.0
2018-Feb-14 01:29N 46°56' E 032°01'0 0.0
2018-Feb-14 00:59N 46°56' E 032°01'  
Track history (hours):
 
Tides and Currents Weather Stations Pressure Air Temp Water Temp Dewpoint Dewpoint Depression Visibility Wind Speed Wind Dir Waves Ship Positions

Helga

Last reported at 2018-Feb-24 00:57 UTC. Time now 2018-Feb-24 18:06 UTC.
Position N 37°30' E 025°56'.

Length 169 m; draft 9.8 m.

Type: Cargo ship. MMSI: 636092390.

Date/timePositionNaut miles runAvg speedWind from/ knotsBaromVisibWave heightAir tempDewpointWater temp
2018-Feb-24 00:57N 37°30' E 025°56'511.8
2018-Feb-24 00:30N 37°35' E 025°54'  
2018-Feb-20 23:59N 46°21' E 030°55'511.4
2018-Feb-20 23:30N 46°27' E 030°55'610.4
2018-Feb-20 22:56N 46°33' E 030°57'1810.4
2018-Feb-20 21:13N 46°34' E 031°23'5 9.6
2018-Feb-20 20:43N 46°36' E 031°30'2 9.4
2018-Feb-20 20:31N 46°35' E 031°32'5 9.8
2018-Feb-20 20:00N 46°36' E 031°39'5 9.7
2018-Feb-20 19:30N 46°36' E 031°46'4 8.0
2018-Feb-20 19:00N 46°37' E 031°52'4 7.7
2018-Feb-20 18:30N 46°40' E 031°56'4 8.1
2018-Feb-20 18:00N 46°44' E 031°56'4 7.8
2018-Feb-20 17:30N 46°47' E 031°53'5 9.7
2018-Feb-20 17:00N 46°51' E 031°57'5 9.7
2018-Feb-20 16:30N 46°55' E 032°01'1 2.0
2018-Feb-20 15:59N 46°56' E 032°01'0 0.0
2018-Feb-20 15:29N 46°56' E 032°01'0 0.0
2018-Feb-20 14:59N 46°56' E 032°01'0 0.0
2018-Feb-20 14:29N 46°56' E 032°01'0 0.0
2018-Feb-20 13:59N 46°56' E 032°01'0 0.0
2018-Feb-20 13:29N 46°56' E 032°01'0 0.0
2018-Feb-20 12:59N 46°56' E 032°01'0 0.0
2018-Feb-20 12:29N 46°56' E 032°01'0 0.0
2018-Feb-20 11:50N 46°56' E 032°01'0 0.0
2018-Feb-20 11:29N 46°56' E 032°01'0 0.0
2018-Feb-20 10:59N 46°56' E 032°01'0 0.0
2018-Feb-20 10:29N 46°56' E 032°01'0 0.0
2018-Feb-20 09:59N 46°56' E 032°01'0 0.0
2018-Feb-20 09:29N 46°56' E 032°01'0 0.0
2018-Feb-20 08:59N 46°56' E 032°01'0 0.0
2018-Feb-20 08:29N 46°56' E 032°01'0 0.0
2018-Feb-20 07:59N 46°56' E 032°01'0 0.0
2018-Feb-20 07:29N 46°56' E 032°01'0 0.0
2018-Feb-20 06:59N 46°56' E 032°01'0 0.0
2018-Feb-20 06:29N 46°56' E 032°01'0 0.0
2018-Feb-20 05:59N 46°56' E 032°01'0 0.0
2018-Feb-20 05:29N 46°56' E 032°01'0 0.0
2018-Feb-20 04:59N 46°56' E 032°01'0 0.0
2018-Feb-20 04:29N 46°56' E 032°01'0 0.0
2018-Feb-20 03:59N 46°56' E 032°01'0 0.0
2018-Feb-20 03:29N 46°56' E 032°01'0 0.0
2018-Feb-20 02:59N 46°56' E 032°01'0 0.0
2018-Feb-20 02:29N 46°56' E 032°01'0 0.0
2018-Feb-20 01:59N 46°56' E 032°01'0 0.0
2018-Feb-20 01:29N 46°56' E 032°01'0 0.0
2018-Feb-20 00:59N 46°56' E 032°01'0 0.0
2018-Feb-20 00:29N 46°56' E 032°01'0 0.0
2018-Feb-19 23:59N 46°56' E 032°01'0 0.0
2018-Feb-19 23:29N 46°56' E 032°01'0 0.0
2018-Feb-19 22:59N 46°56' E 032°01'0 0.0
2018-Feb-19 22:29N 46°56' E 032°01'0 0.0
2018-Feb-19 21:59N 46°56' E 032°01'0 0.0
2018-Feb-19 21:23N 46°56' E 032°01'0 0.0
2018-Feb-19 20:59N 46°56' E 032°01'0 0.0
2018-Feb-19 20:26N 46°56' E 032°01'0 0.0
2018-Feb-19 19:59N 46°56' E 032°01'0 0.0
2018-Feb-19 19:29N 46°56' E 032°01'0 0.0
2018-Feb-19 18:56N 46°56' E 032°01'0 0.0
2018-Feb-19 18:29N 46°56' E 032°01'0 0.0
2018-Feb-19 17:59N 46°56' E 032°01'0 0.0
2018-Feb-19 17:29N 46°56' E 032°01'0 0.0
2018-Feb-19 16:59N 46°56' E 032°01'0 0.0
2018-Feb-19 16:29N 46°56' E 032°01'0 0.0
2018-Feb-19 15:59N 46°56' E 032°01'0 0.0
2018-Feb-19 15:29N 46°56' E 032°01'0 0.0
2018-Feb-19 14:59N 46°56' E 032°01'0 0.0
2018-Feb-19 14:29N 46°56' E 032°01'0 0.0
2018-Feb-19 13:59N 46°56' E 032°01'0 0.0
2018-Feb-19 13:29N 46°56' E 032°01'0 0.0
2018-Feb-19 12:59N 46°56' E 032°01'0 0.0
2018-Feb-19 12:29N 46°56' E 032°01'0 0.0
2018-Feb-19 11:59N 46°56' E 032°01'0 0.0
2018-Feb-19 11:29N 46°56' E 032°01'0 0.0
2018-Feb-19 10:59N 46°56' E 032°01'0 0.0
2018-Feb-19 10:29N 46°56' E 032°01'0 0.0
2018-Feb-19 09:59N 46°56' E 032°01'0 0.0
2018-Feb-19 09:29N 46°56' E 032°01'0 0.0
2018-Feb-19 08:59N 46°56' E 032°01'0 0.0
2018-Feb-19 08:23N 46°56' E 032°01'0 0.0
2018-Feb-19 07:59N 46°56' E 032°01'0 0.0
2018-Feb-19 07:29N 46°56' E 032°01'0 0.0
2018-Feb-19 06:59N 46°56' E 032°01'0 0.0
2018-Feb-19 06:29N 46°56' E 032°01'0 0.0
2018-Feb-19 05:59N 46°56' E 032°01'0 0.0
2018-Feb-19 05:29N 46°56' E 032°01'0 0.0
2018-Feb-19 04:59N 46°56' E 032°01'0 0.0
2018-Feb-19 04:29N 46°56' E 032°01'0 0.0
2018-Feb-19 03:59N 46°56' E 032°01'0 0.0
2018-Feb-19 03:29N 46°56' E 032°01'0 0.0
2018-Feb-19 02:59N 46°56' E 032°01'0 0.0
2018-Feb-19 02:29N 46°56' E 032°01'0 0.0
2018-Feb-19 01:59N 46°56' E 032°01'0 0.0
2018-Feb-19 01:29N 46°56' E 032°01'0 0.0
2018-Feb-19 00:59N 46°56' E 032°01'0 0.0
2018-Feb-19 00:29N 46°56' E 032°01'0 0.0
2018-Feb-18 23:56N 46°56' E 032°01'0 0.0
2018-Feb-18 23:26N 46°56' E 032°01'0 0.0
2018-Feb-18 22:59N 46°56' E 032°01'0 0.0
2018-Feb-18 22:29N 46°56' E 032°01'0 0.0
2018-Feb-18 21:59N 46°56' E 032°01'0 0.0
2018-Feb-18 21:26N 46°56' E 032°01'0 0.0
2018-Feb-18 20:59N 46°56' E 032°01'0 0.0
2018-Feb-18 20:29N 46°56' E 032°01'0 0.0
2018-Feb-18 19:59N 46°56' E 032°01'0 0.0
2018-Feb-18 19:29N 46°56' E 032°01'0 0.0
2018-Feb-18 18:59N 46°56' E 032°01'0 0.0
2018-Feb-18 18:29N 46°56' E 032°01'0 0.0
2018-Feb-18 17:56N 46°56' E 032°01'0 0.0
2018-Feb-18 17:29N 46°56' E 032°01'0 0.0
2018-Feb-18 16:59N 46°56' E 032°01'0 0.0
2018-Feb-18 16:26N 46°56' E 032°01'0 0.0
2018-Feb-18 15:59N 46°56' E 032°01'0 0.0
2018-Feb-18 15:29N 46°56' E 032°01'0 0.0
2018-Feb-18 14:59N 46°56' E 032°01'0 0.0
2018-Feb-18 14:29N 46°56' E 032°01'0 0.0
2018-Feb-18 13:59N 46°56' E 032°01'0 0.0
2018-Feb-18 13:26N 46°56' E 032°01'0 0.0
2018-Feb-18 12:59N 46°56' E 032°01'0 0.0
2018-Feb-18 12:29N 46°56' E 032°01'0 0.0
2018-Feb-18 11:59N 46°56' E 032°01'0 0.0
2018-Feb-18 11:29N 46°56' E 032°01'0 0.0
2018-Feb-18 10:59N 46°56' E 032°01'0 0.0
2018-Feb-18 10:29N 46°56' E 032°01'0 0.0
2018-Feb-18 09:59N 46°56' E 032°01'0 0.0
2018-Feb-18 09:29N 46°56' E 032°01'0 0.0
2018-Feb-18 08:59N 46°56' E 032°01'0 0.0
2018-Feb-18 08:29N 46°56' E 032°01'0 0.0
2018-Feb-18 07:59N 46°56' E 032°01'0 0.0
2018-Feb-18 07:29N 46°56' E 032°01'0 0.0
2018-Feb-18 06:59N 46°56' E 032°01'0 0.0
2018-Feb-18 06:29N 46°56' E 032°01'0 0.0
2018-Feb-18 05:59N 46°56' E 032°01'0 0.0
2018-Feb-18 05:26N 46°56' E 032°01'0 0.0
2018-Feb-18 04:59N 46°56' E 032°01'0 0.0
2018-Feb-18 04:29N 46°56' E 032°01'0 0.0
2018-Feb-18 03:59N 46°56' E 032°01'0 0.0
2018-Feb-18 03:29N 46°56' E 032°01'0 0.0
2018-Feb-18 02:59N 46°56' E 032°01'0 0.0
2018-Feb-18 02:26N 46°56' E 032°01'0 0.0
2018-Feb-18 01:59N 46°56' E 032°01'0 0.0
2018-Feb-18 01:29N 46°56' E 032°01'0 0.0
2018-Feb-18 00:59N 46°56' E 032°01'0 0.0
2018-Feb-18 00:29N 46°56' E 032°01'0 0.0
2018-Feb-17 23:59N 46°56' E 032°01'0 0.0
2018-Feb-17 23:29N 46°56' E 032°01'0 0.0
2018-Feb-17 22:59N 46°56' E 032°01'0 0.0
2018-Feb-17 22:29N 46°56' E 032°01'0 0.0
2018-Feb-17 21:56N 46°56' E 032°01'0 0.0
2018-Feb-17 21:29N 46°56' E 032°01'0 0.0
2018-Feb-17 20:56N 46°56' E 032°01'0 0.0
2018-Feb-17 20:29N 46°56' E 032°01'0 0.0
2018-Feb-17 19:59N 46°56' E 032°01'0 0.0
2018-Feb-17 19:29N 46°56' E 032°01'0 0.0
2018-Feb-17 18:59N 46°56' E 032°01'0 0.0
2018-Feb-17 18:29N 46°56' E 032°01'0 0.0
2018-Feb-17 17:59N 46°56' E 032°01'0 0.0
2018-Feb-17 17:29N 46°56' E 032°01'0 0.0
2018-Feb-17 16:59N 46°56' E 032°01'0 0.0
2018-Feb-17 16:29N 46°56' E 032°01'0 0.0
2018-Feb-17 15:59N 46°56' E 032°01'0 0.0
2018-Feb-17 15:29N 46°56' E 032°01'0 0.0
2018-Feb-17 14:59N 46°56' E 032°01'0 0.0
2018-Feb-17 14:29N 46°56' E 032°01'0 0.0
2018-Feb-17 13:56N 46°56' E 032°01'0 0.0
2018-Feb-17 13:29N 46°56' E 032°01'0 0.0
2018-Feb-17 12:59N 46°56' E 032°01'0 0.0
2018-Feb-17 12:29N 46°56' E 032°01'0 0.0
2018-Feb-17 11:59N 46°56' E 032°01'0 0.0
2018-Feb-17 11:29N 46°56' E 032°01'0 0.0
2018-Feb-17 10:59N 46°56' E 032°01'0 0.0
2018-Feb-17 10:29N 46°56' E 032°01'0 0.0
2018-Feb-17 09:59N 46°56' E 032°01'0 0.0
2018-Feb-17 09:29N 46°56' E 032°01'0 0.0
2018-Feb-17 08:59N 46°56' E 032°01'0 0.0
2018-Feb-17 08:29N 46°56' E 032°01'0 0.0
2018-Feb-17 07:59N 46°56' E 032°01'0 0.0
2018-Feb-17 07:29N 46°56' E 032°01'0 0.0
2018-Feb-17 06:59N 46°56' E 032°01'0 0.0
2018-Feb-17 06:29N 46°56' E 032°01'0 0.0
2018-Feb-17 05:59N 46°56' E 032°01'0 0.0
2018-Feb-17 05:29N 46°56' E 032°01'0 0.0
2018-Feb-17 04:59N 46°56' E 032°01'0 0.0
2018-Feb-17 04:29N 46°56' E 032°01'0 0.0
2018-Feb-17 03:59N 46°56' E 032°01'0 0.0
2018-Feb-17 03:29N 46°56' E 032°01'0 0.0
2018-Feb-17 02:59N 46°56' E 032°01'0 0.0
2018-Feb-17 02:29N 46°56' E 032°01'0 0.0
2018-Feb-17 01:59N 46°56' E 032°01'0 0.0
2018-Feb-17 01:29N 46°56' E 032°01'0 0.0
2018-Feb-17 00:59N 46°56' E 032°01'0 0.0
2018-Feb-17 00:29N 46°56' E 032°01'0 0.0
2018-Feb-16 23:59N 46°56' E 032°01'0 0.0
2018-Feb-16 23:29N 46°56' E 032°01'0 0.0
2018-Feb-16 22:59N 46°56' E 032°01'0 0.0
2018-Feb-16 22:29N 46°56' E 032°01'0 0.0
2018-Feb-16 21:59N 46°56' E 032°01'0 0.0
2018-Feb-16 21:29N 46°56' E 032°01'0 0.0
2018-Feb-16 20:59N 46°56' E 032°01'0 0.0
2018-Feb-16 20:29N 46°56' E 032°01'0 0.0
2018-Feb-16 19:59N 46°56' E 032°01'0 0.0
2018-Feb-16 19:29N 46°56' E 032°01'0 0.0
2018-Feb-16 18:59N 46°56' E 032°01'0 0.0
2018-Feb-16 18:29N 46°56' E 032°01'0 0.0
2018-Feb-16 17:59N 46°56' E 032°01'0 0.0
2018-Feb-16 17:29N 46°56' E 032°01'0 0.1
2018-Feb-16 16:59N 46°56' E 032°01'0 0.0
2018-Feb-16 16:23N 46°56' E 032°01'0 0.1
2018-Feb-16 15:59N 46°56' E 032°01'0 0.0
2018-Feb-16 15:29N 46°56' E 032°01'0 0.0
2018-Feb-16 14:59N 46°56' E 032°01'0 0.0
2018-Feb-16 14:29N 46°56' E 032°01'0 0.0
2018-Feb-16 13:59N 46°56' E 032°01'0 0.0
2018-Feb-16 13:29N 46°56' E 032°01'0 0.0
2018-Feb-16 12:59N 46°56' E 032°01'0 0.0
2018-Feb-16 12:29N 46°56' E 032°01'0 0.0
2018-Feb-16 11:59N 46°56' E 032°01'0 0.0
2018-Feb-16 11:29N 46°56' E 032°01'0 0.0
2018-Feb-16 10:59N 46°56' E 032°01'0 0.0
2018-Feb-16 10:29N 46°56' E 032°01'0 0.0
2018-Feb-16 09:59N 46°56' E 032°01'0 0.0
2018-Feb-16 09:29N 46°56' E 032°01'0 0.0
2018-Feb-16 08:59N 46°56' E 032°01'0 0.0
2018-Feb-16 08:29N 46°56' E 032°01'0 0.0
2018-Feb-16 07:59N 46°56' E 032°01'0 0.0
2018-Feb-16 07:29N 46°56' E 032°01'0 0.0
2018-Feb-16 06:59N 46°56' E 032°01'0 0.0
2018-Feb-16 06:29N 46°56' E 032°01'0 0.0
2018-Feb-16 05:59N 46°56' E 032°01'0 0.0
2018-Feb-16 05:29N 46°56' E 032°01'0 0.0
2018-Feb-16 04:53N 46°56' E 032°01'0 0.0
2018-Feb-16 04:29N 46°56' E 032°01'0 0.0
2018-Feb-16 03:59N 46°56' E 032°01'0 0.0
2018-Feb-16 03:29N 46°56' E 032°01'0 0.0
2018-Feb-16 02:59N 46°56' E 032°01'0 0.0
2018-Feb-16 02:29N 46°56' E 032°01'0 0.0
2018-Feb-16 01:59N 46°56' E 032°01'0 0.0
2018-Feb-16 01:29N 46°56' E 032°01'0 0.0
2018-Feb-16 00:59N 46°56' E 032°01'0 0.0
2018-Feb-16 00:29N 46°56' E 032°01'0 0.0
2018-Feb-15 23:59N 46°56' E 032°01'0 0.0
2018-Feb-15 23:29N 46°56' E 032°01'0 0.0
2018-Feb-15 22:59N 46°56' E 032°01'0 0.0
2018-Feb-15 22:29N 46°56' E 032°01'0 0.0
2018-Feb-15 21:59N 46°56' E 032°01'0 0.0
2018-Feb-15 21:29N 46°56' E 032°01'0 0.0
2018-Feb-15 20:59N 46°56' E 032°01'0 0.0
2018-Feb-15 20:29N 46°56' E 032°01'0 0.0
2018-Feb-15 19:59N 46°56' E 032°01'0 0.0
2018-Feb-15 19:29N 46°56' E 032°01'0 0.0
2018-Feb-15 18:59N 46°56' E 032°01'0 0.0
2018-Feb-15 18:29N 46°56' E 032°01'0 0.0
2018-Feb-15 17:59N 46°56' E 032°01'0 0.0
2018-Feb-15 17:29N 46°56' E 032°01'0 0.0
2018-Feb-15 16:59N 46°56' E 032°01'0 0.0
2018-Feb-15 16:29N 46°56' E 032°01'0 0.0
2018-Feb-15 15:59N 46°56' E 032°01'0 0.0
2018-Feb-15 15:29N 46°56' E 032°01'0 0.0
2018-Feb-15 14:59N 46°56' E 032°01'0 0.0
2018-Feb-15 14:29N 46°56' E 032°01'0 0.0
2018-Feb-15 13:59N 46°56' E 032°01'0 0.0
2018-Feb-15 13:29N 46°56' E 032°01'0 0.0
2018-Feb-15 12:59N 46°56' E 032°01'0 0.0
2018-Feb-15 12:29N 46°56' E 032°01'0 0.0
2018-Feb-15 11:59N 46°56' E 032°01'0 0.0
2018-Feb-15 11:29N 46°56' E 032°01'0 0.0
2018-Feb-15 10:59N 46°56' E 032°01'0 0.0
2018-Feb-15 10:29N 46°56' E 032°01'0 0.0
2018-Feb-15 09:59N 46°56' E 032°01'0 0.0
2018-Feb-15 09:29N 46°56' E 032°01'0 0.0
2018-Feb-15 08:59N 46°56' E 032°01'0 0.0
2018-Feb-15 08:29N 46°56' E 032°01'0 0.0
2018-Feb-15 07:59N 46°56' E 032°01'0 0.0
2018-Feb-15 07:29N 46°56' E 032°01'0 0.0
2018-Feb-15 06:59N 46°56' E 032°01'0 0.0
2018-Feb-15 06:23N 46°56' E 032°01'0 0.0
2018-Feb-15 05:59N 46°56' E 032°01'0 0.0
2018-Feb-15 05:29N 46°56' E 032°01'0 0.0
2018-Feb-15 04:59N 46°56' E 032°01'0 0.0
2018-Feb-15 04:29N 46°56' E 032°01'0 0.0
2018-Feb-15 03:59N 46°56' E 032°01'0 0.0
2018-Feb-15 03:29N 46°56' E 032°01'0 0.0
2018-Feb-15 02:59N 46°56' E 032°01'0 0.0
2018-Feb-15 02:29N 46°56' E 032°01'0 0.0
2018-Feb-15 01:59N 46°56' E 032°01'0 0.0
2018-Feb-15 01:29N 46°56' E 032°01'0 0.0
2018-Feb-15 00:59N 46°56' E 032°01'0 0.0
2018-Feb-15 00:29N 46°56' E 032°01'0 0.0
2018-Feb-14 23:59N 46°56' E 032°01'0 0.0
2018-Feb-14 23:29N 46°56' E 032°01'0 0.0
2018-Feb-14 22:59N 46°56' E 032°01'0 0.0
2018-Feb-14 22:29N 46°56' E 032°01'0 0.0
2018-Feb-14 21:59N 46°56' E 032°01'0 0.0
2018-Feb-14 21:29N 46°56' E 032°01'0 0.0
2018-Feb-14 20:59N 46°56' E 032°01'0 0.0
2018-Feb-14 20:29N 46°56' E 032°01'0 0.0
2018-Feb-14 19:59N 46°56' E 032°01'0 0.0
2018-Feb-14 19:29N 46°56' E 032°01'0 0.0
2018-Feb-14 18:59N 46°56' E 032°01'0 0.0
2018-Feb-14 18:29N 46°56' E 032°01'0 0.0
2018-Feb-14 17:59N 46°56' E 032°01'0 0.0
2018-Feb-14 17:29N 46°56' E 032°01'0 0.0
2018-Feb-14 16:59N 46°56' E 032°01'0 0.0
2018-Feb-14 16:29N 46°56' E 032°01'0 0.0
2018-Feb-14 15:59N 46°56' E 032°01'0 0.0
2018-Feb-14 15:29N 46°56' E 032°01'0 0.0
2018-Feb-14 14:59N 46°56' E 032°01'0 0.0
2018-Feb-14 14:29N 46°56' E 032°01'0 0.0
2018-Feb-14 13:59N 46°56' E 032°01'0 0.0
2018-Feb-14 13:29N 46°56' E 032°01'0 0.0
2018-Feb-14 12:59N 46°56' E 032°01'0 0.0
2018-Feb-14 12:29N 46°56' E 032°01'0 0.0
2018-Feb-14 11:59N 46°56' E 032°01'0 0.0
2018-Feb-14 11:29N 46°56' E 032°01'0 0.0
2018-Feb-14 10:59N 46°56' E 032°01'0 0.0
2018-Feb-14 10:29N 46°56' E 032°01'0 0.0
2018-Feb-14 09:59N 46°56' E 032°01'0 0.0
2018-Feb-14 09:29N 46°56' E 032°01'0 0.0
2018-Feb-14 08:59N 46°56' E 032°01'0 0.0
2018-Feb-14 08:29N 46°56' E 032°01'0 0.0
2018-Feb-14 07:59N 46°56' E 032°01'0 0.0
2018-Feb-14 07:29N 46°56' E 032°01'0 0.0
2018-Feb-14 06:59N 46°56' E 032°01'0 0.0
2018-Feb-14 06:29N 46°56' E 032°01'0 0.0
2018-Feb-14 05:59N 46°56' E 032°01'0 0.0
2018-Feb-14 05:29N 46°56' E 032°01'0 0.0
2018-Feb-14 04:59N 46°56' E 032°01'0 0.0
2018-Feb-14 04:29N 46°56' E 032°01'0 0.0
2018-Feb-14 03:59N 46°56' E 032°01'0 0.0
2018-Feb-14 03:29N 46°56' E 032°01'0 0.0
2018-Feb-14 02:59N 46°56' E 032°01'0 0.0
2018-Feb-14 02:29N 46°56' E 032°01'0 0.0
2018-Feb-14 01:59N 46°56' E 032°01'0 0.0
2018-Feb-14 01:29N 46°56' E 032°01'0 0.0
2018-Feb-14 00:59N 46°56' E 032°01'  

Dump ship's entire track history